createdAt,value
2022-12-07T00:02:03.760Z,100251.65
2022-12-07T00:04:35.627Z,100249.02
2022-12-07T00:07:07.357Z,100245.89
2022-12-07T00:09:40.056Z,100245.83
2022-12-07T00:12:11.806Z,100245.31
2022-12-07T00:14:43.415Z,100245.55
2022-12-07T00:17:15.075Z,100247.58
2022-12-07T00:19:46.775Z,100248.00
2022-12-07T00:22:18.420Z,100244.41
2022-12-07T00:24:50.036Z,100245.42
2022-12-07T00:27:21.781Z,100244.09
2022-12-07T00:29:53.876Z,100239.33
2022-12-07T00:32:25.572Z,100234.19
2022-12-07T00:34:57.239Z,100234.86
2022-12-07T00:37:28.974Z,100235.78
2022-12-07T00:40:00.871Z,100234.42
2022-12-07T00:42:32.689Z,100232.86
2022-12-07T00:45:04.492Z,100230.07
2022-12-07T00:47:36.514Z,100229.38
2022-12-07T00:50:13.796Z,100230.98
2022-12-07T00:52:45.776Z,100228.84
2022-12-07T00:55:17.468Z,100227.20
2022-12-07T00:57:49.166Z,100229.77
2022-12-07T01:00:22.802Z,100231.87
2022-12-07T01:02:55.028Z,100227.43
2022-12-07T01:05:26.683Z,100229.25
2022-12-07T01:07:58.482Z,100229.58
2022-12-07T01:10:32.831Z,100230.45
2022-12-07T01:13:04.723Z,100227.66
2022-12-07T01:15:36.408Z,100224.58
2022-12-07T01:18:08.203Z,100221.14
2022-12-07T01:20:40.306Z,100222.27
2022-12-07T01:23:11.976Z,100216.89
2022-12-07T01:25:43.601Z,100219.44
2022-12-07T01:28:15.330Z,100217.59
2022-12-07T01:30:47.060Z,100217.85
2022-12-07T01:33:18.954Z,100214.80
2022-12-07T01:35:50.568Z,100219.73
2022-12-07T01:38:22.307Z,100220.73
2022-12-07T01:40:59.594Z,100221.02
2022-12-07T01:43:33.085Z,100216.71
2022-12-07T01:46:05.936Z,100217.52
2022-12-07T01:48:42.706Z,100219.04
2022-12-07T01:51:16.333Z,100210.58
2022-12-07T01:53:48.964Z,100207.26
2022-12-07T01:56:26.330Z,100200.70
2022-12-07T01:59:00.694Z,100201.14
2022-12-07T02:01:32.756Z,100199.09
2022-12-07T02:04:04.901Z,100192.86
2022-12-07T02:06:37.794Z,100189.16
2022-12-07T02:09:09.722Z,100189.83
2022-12-07T02:11:41.900Z,100187.17
2022-12-07T02:14:13.629Z,100184.48
2022-12-07T02:16:56.160Z,100184.49
2022-12-07T02:20:05.005Z,100177.40
2022-12-07T02:23:05.015Z,100178.32
2022-12-07T02:25:58.061Z,100176.13
2022-12-07T02:28:35.661Z,100180.98
2022-12-07T02:31:12.958Z,100181.23
2022-12-07T02:33:51.519Z,100180.73
2022-12-07T02:36:29.137Z,100177.51
2022-12-07T02:39:07.861Z,100175.12
2022-12-07T02:41:45.264Z,100175.80
2022-12-07T02:44:20.337Z,100178.40
2022-12-07T02:46:56.126Z,100175.33
2022-12-07T02:49:29.618Z,100174.80
2022-12-07T02:52:01.489Z,100171.54
2022-12-07T02:54:33.227Z,100165.60
2022-12-07T02:57:14.323Z,100163.02
2022-12-07T02:59:59.408Z,100161.30
2022-12-07T03:02:38.617Z,100159.93
2022-12-07T03:05:23.664Z,100158.39
2022-12-07T03:08:03.011Z,100157.14
2022-12-07T03:10:42.659Z,100162.03
2022-12-07T03:13:22.773Z,100157.38
2022-12-07T03:15:59.229Z,100156.07
2022-12-07T03:18:34.542Z,100156.27
2022-12-07T03:21:12.794Z,100157.00
2022-12-07T03:23:49.233Z,100159.84
2022-12-07T03:26:23.942Z,100159.19
2022-12-07T03:29:02.112Z,100154.88
2022-12-07T03:31:38.453Z,100154.87
2022-12-07T03:34:14.937Z,100151.50
2022-12-07T03:36:52.412Z,100150.72
2022-12-07T03:39:28.899Z,100148.73
2022-12-07T03:42:03.804Z,100145.70
2022-12-07T03:44:37.128Z,100145.67
2022-12-07T03:47:15.583Z,100143.61
2022-12-07T03:49:52.737Z,100140.52
2022-12-07T03:52:30.467Z,100142.08
2022-12-07T03:55:08.868Z,100134.06
2022-12-07T03:57:44.021Z,100129.80
2022-12-07T04:00:20.533Z,100127.49
2022-12-07T04:02:55.368Z,100126.92
2022-12-07T04:05:27.651Z,100123.08
2022-12-07T04:07:59.452Z,100123.27
2022-12-07T04:10:31.266Z,100125.34
2022-12-07T04:13:03.220Z,100118.11
2022-12-07T04:15:35.186Z,100118.47
2022-12-07T04:18:06.916Z,100117.58
2022-12-07T04:20:39.099Z,100115.52
2022-12-07T04:23:10.755Z,100115.77
2022-12-07T04:25:42.592Z,100114.45
2022-12-07T04:28:14.237Z,100114.84
2022-12-07T04:30:47.730Z,100109.87
2022-12-07T04:33:19.341Z,100109.38
2022-12-07T04:35:51.000Z,100111.69
2022-12-07T04:38:22.675Z,100107.71
2022-12-07T04:40:54.451Z,100102.83
2022-12-07T04:43:26.099Z,100100.95
2022-12-07T04:45:57.779Z,100104.67
2022-12-07T04:48:29.531Z,100105.01
2022-12-07T04:51:01.251Z,100105.45
2022-12-07T04:53:32.882Z,100103.88
2022-12-07T04:56:04.670Z,100096.79
2022-12-07T04:58:36.316Z,100096.66
2022-12-07T05:01:08.083Z,100098.44
2022-12-07T05:03:41.330Z,100096.84
2022-12-07T05:06:14.094Z,100093.66
2022-12-07T05:08:46.197Z,100090.33
2022-12-07T05:11:32.082Z,100087.09
2022-12-07T05:14:04.750Z,100084.99
2022-12-07T05:16:36.540Z,100086.08
2022-12-07T05:19:08.801Z,100079.65
2022-12-07T05:21:41.747Z,100074.97
2022-12-07T05:24:14.642Z,100076.20
2022-12-07T05:26:47.190Z,100075.94
2022-12-07T05:29:20.086Z,100073.55
2022-12-07T05:31:52.197Z,100075.33
2022-12-07T05:34:24.067Z,100074.30
2022-12-07T05:36:55.736Z,100080.88
2022-12-07T05:39:27.319Z,100082.20
2022-12-07T05:42:13.953Z,100082.34
2022-12-07T05:44:47.545Z,100084.02
2022-12-07T05:47:19.692Z,100083.48
2022-12-07T05:49:51.513Z,100082.38
2022-12-07T05:52:23.363Z,100079.25
2022-12-07T05:54:55.144Z,100075.13
2022-12-07T05:57:26.818Z,100079.71
2022-12-07T05:59:58.429Z,100076.48
2022-12-07T06:02:30.170Z,100080.62
2022-12-07T06:05:02.108Z,100079.44
2022-12-07T06:07:34.246Z,100076.89
2022-12-07T06:10:13.587Z,100076.00
2022-12-07T06:12:47.345Z,100072.98
2022-12-07T06:15:19.275Z,100074.88
2022-12-07T06:17:51.122Z,100075.77
2022-12-07T06:20:24.510Z,100071.96
2022-12-07T06:22:56.504Z,100070.44
2022-12-07T06:25:28.195Z,100067.45
2022-12-07T06:27:59.994Z,100062.36
2022-12-07T06:30:32.531Z,100059.26
2022-12-07T06:33:04.224Z,100061.29
2022-12-07T06:35:37.577Z,100062.88
2022-12-07T06:38:09.253Z,100069.50
2022-12-07T06:40:40.937Z,100070.48
2022-12-07T06:43:12.634Z,100070.89
2022-12-07T06:45:45.167Z,100070.73
2022-12-07T06:48:16.954Z,100072.40
2022-12-07T06:50:54.693Z,100069.69
2022-12-07T06:53:27.031Z,100070.35
2022-12-07T06:55:58.722Z,100070.20
2022-12-07T06:58:30.458Z,100065.08
2022-12-07T07:01:02.508Z,100061.62
2022-12-07T07:03:34.356Z,100063.71
2022-12-07T07:06:06.400Z,100063.80
2022-12-07T07:08:38.593Z,100061.06
2022-12-07T07:11:11.486Z,100055.52
2022-12-07T07:13:43.449Z,100053.20
2022-12-07T07:16:15.245Z,100047.98
2022-12-07T07:18:47.300Z,100042.20
2022-12-07T07:21:18.984Z,100039.85
2022-12-07T07:23:50.665Z,100038.30
2022-12-07T07:26:23.425Z,100038.24
2022-12-07T07:28:55.265Z,100040.16
2022-12-07T07:31:26.935Z,100033.39
2022-12-07T07:33:58.725Z,100032.57
2022-12-07T07:36:30.456Z,100034.39
2022-12-07T07:39:02.353Z,100030.63
2022-12-07T07:41:34.729Z,100029.56
2022-12-07T07:44:06.625Z,100029.60
2022-12-07T07:46:38.608Z,100029.68
2022-12-07T07:49:11.454Z,100027.73
2022-12-07T07:51:43.094Z,100031.21
2022-12-07T07:54:14.892Z,100026.63
2022-12-07T07:56:46.683Z,100023.73
2022-12-07T07:59:18.823Z,100020.77
2022-12-07T08:01:50.760Z,100020.88
2022-12-07T08:04:22.620Z,100018.40
2022-12-07T08:06:54.263Z,100011.80
2022-12-07T08:09:26.290Z,100010.82
2022-12-07T08:11:57.955Z,100011.17
2022-12-07T08:14:29.924Z,100004.39
2022-12-07T08:17:01.835Z,99996.09
2022-12-07T08:19:33.634Z,99993.06
2022-12-07T08:22:05.322Z,99993.54
2022-12-07T08:24:38.552Z,99991.42
2022-12-07T08:27:10.587Z,99992.79
2022-12-07T08:29:42.284Z,99994.38
2022-12-07T08:32:13.951Z,99988.17
2022-12-07T08:34:45.887Z,99988.08
2022-12-07T08:37:17.527Z,99984.70
2022-12-07T08:39:49.619Z,99983.55
2022-12-07T08:42:23.171Z,99977.58
2022-12-07T08:44:54.846Z,99977.27
2022-12-07T08:47:27.418Z,99975.59
2022-12-07T08:50:04.640Z,99975.38
2022-12-07T08:52:44.686Z,99975.95
2022-12-07T08:55:16.366Z,99975.70
2022-12-07T08:57:48.222Z,99969.30
2022-12-07T09:00:22.181Z,99974.42
2022-12-07T09:02:55.094Z,99971.52
2022-12-07T09:05:27.168Z,99965.82
2022-12-07T09:08:02.528Z,99964.34
2022-12-07T09:10:34.460Z,99963.94
2022-12-07T09:13:06.176Z,99962.59
2022-12-07T09:15:37.891Z,99957.73
2022-12-07T09:18:09.850Z,99956.58
2022-12-07T09:20:41.563Z,99955.44
2022-12-07T09:23:13.500Z,99950.95
2022-12-07T09:25:45.490Z,99948.44
2022-12-07T09:28:17.227Z,99951.02
2022-12-07T09:31:22.213Z,99951.21
2022-12-07T09:33:42.790Z,99952.45
2022-12-07T09:36:14.709Z,99945.80
2022-12-07T09:38:46.377Z,99941.96
2022-12-07T09:41:18.199Z,99934.63
2022-12-07T09:43:49.952Z,99932.07
2022-12-07T09:46:23.375Z,99927.55
2022-12-07T09:48:55.228Z,99922.45
2022-12-07T09:51:29.388Z,99919.52
2022-12-07T09:54:02.471Z,99919.08
2022-12-07T09:56:34.514Z,99915.42
2022-12-07T09:59:06.911Z,99912.85
2022-12-07T10:01:40.412Z,99914.51
2022-12-07T10:04:18.186Z,99908.30
2022-12-07T10:06:52.296Z,99911.89
2022-12-07T10:09:26.226Z,99906.69
2022-12-07T10:12:08.128Z,99901.89
2022-12-07T10:17:39.830Z,99903.42
2022-12-07T10:20:26.477Z,99898.34
2022-12-07T10:23:03.608Z,99895.41
2022-12-07T10:25:37.381Z,99897.97
2022-12-07T10:28:18.026Z,99893.64
2022-12-07T10:31:00.509Z,99894.97
2022-12-07T10:33:38.108Z,99893.17
2022-12-07T10:36:25.705Z,99888.95
2022-12-07T10:39:04.725Z,99890.75
2022-12-07T10:41:36.420Z,99890.05
2022-12-07T10:44:21.905Z,99885.90
2022-12-07T10:47:19.379Z,99884.96
2022-12-07T10:50:22.848Z,99882.18
2022-12-07T10:53:09.986Z,99876.58
2022-12-07T10:55:56.805Z,99873.38
2022-12-07T10:58:46.632Z,99869.37
2022-12-07T11:01:26.114Z,99871.48
2022-12-07T11:04:14.027Z,99868.49
2022-12-07T11:06:53.863Z,99873.14
2022-12-07T11:12:55.739Z,99870.83
2022-12-07T11:15:31.966Z,99868.52
2022-12-07T11:18:09.877Z,99870.70
2022-12-07T11:20:51.995Z,99869.94
2022-12-07T11:23:31.945Z,99869.41
2022-12-07T11:26:15.387Z,99869.78
2022-12-07T11:29:03.389Z,99866.39
2022-12-07T11:31:47.552Z,99864.21
2022-12-07T11:34:26.864Z,99858.36
2022-12-07T11:36:59.621Z,99859.02
2022-12-07T11:39:35.934Z,99854.80
2022-12-07T11:42:15.211Z,99854.73
2022-12-07T11:44:54.730Z,99852.34
2022-12-07T11:47:36.942Z,99852.91
2022-12-07T11:50:27.094Z,99848.30
2022-12-07T11:53:03.475Z,99846.65
2022-12-07T11:55:44.013Z,99838.77
2022-12-07T11:58:37.534Z,99845.58
2022-12-07T12:01:21.757Z,99839.66
2022-12-07T12:03:56.010Z,99838.30
2022-12-07T12:06:27.886Z,99838.86
2022-12-07T12:15:20.559Z,99834.22
2022-12-07T12:18:14.457Z,99835.08
2022-12-07T12:20:51.325Z,99834.80
2022-12-07T12:23:26.009Z,99837.94
2022-12-07T12:26:01.014Z,99843.89
2022-12-07T12:28:37.905Z,99842.64
2022-12-07T12:31:13.785Z,99852.98
2022-12-07T12:33:50.450Z,99858.62
2022-12-07T12:36:28.712Z,99868.62
2022-12-07T12:39:15.824Z,99867.88
2022-12-07T12:42:19.611Z,99868.55
2022-12-07T12:45:24.130Z,99847.60
2022-12-07T12:48:01.009Z,99848.34
2022-12-07T12:50:35.921Z,99850.06
2022-12-07T12:53:23.055Z,99848.70
2022-12-07T12:56:21.734Z,99847.61
2022-12-07T12:59:26.171Z,99846.86
2022-12-07T13:02:09.726Z,99851.20
2022-12-07T13:04:56.922Z,99854.61
2022-12-07T13:08:00.011Z,99859.04
2022-12-07T13:10:49.250Z,99861.09
2022-12-07T13:13:40.005Z,99855.92
2022-12-07T13:16:43.561Z,99856.66
2022-12-07T13:19:58.370Z,99853.64
2022-12-07T13:22:54.578Z,99853.90
2022-12-07T13:25:38.518Z,99860.08
2022-12-07T13:28:17.533Z,99852.55
2022-12-07T13:31:02.681Z,99858.87
2022-12-07T13:33:36.406Z,99865.91
2022-12-07T13:36:15.363Z,99887.42
2022-12-07T13:38:54.679Z,99889.69
2022-12-07T13:41:28.271Z,99897.05
2022-12-07T13:44:10.573Z,99897.14
2022-12-07T13:46:51.959Z,99887.69
2022-12-07T13:49:26.723Z,99894.91
2022-12-07T13:52:14.987Z,99901.81
2022-12-07T13:54:51.024Z,99906.58
2022-12-07T13:57:23.505Z,99906.30
2022-12-07T13:59:55.987Z,99911.67
2022-12-07T14:02:34.469Z,99917.23
2022-12-07T14:05:18.575Z,99920.16
2022-12-07T14:08:00.301Z,99921.14
2022-12-07T14:10:34.248Z,99922.57
2022-12-07T14:13:27.449Z,99922.93
2022-12-07T14:16:00.330Z,99928.04
2022-12-07T14:18:38.852Z,99931.77
2022-12-07T14:21:19.525Z,99933.91
2022-12-07T14:24:10.667Z,99925.88
2022-12-07T14:26:43.502Z,99924.66
2022-12-07T14:29:32.683Z,99921.95
2022-12-07T14:32:23.971Z,99928.65
2022-12-07T14:35:01.425Z,99928.85
2022-12-07T14:37:33.779Z,99932.10
2022-12-07T14:43:08.919Z,99934.75
2022-12-07T14:45:40.848Z,99936.77
2022-12-07T14:53:59.284Z,99929.79
2022-12-07T14:56:30.955Z,99925.40
2022-12-07T14:59:03.160Z,99923.67
2022-12-07T15:01:35.245Z,99924.57
2022-12-07T15:04:07.251Z,99916.46
2022-12-07T15:06:39.156Z,99917.91
2022-12-07T15:09:12.668Z,99914.00
2022-12-07T15:11:44.774Z,99914.94
2022-12-07T15:14:16.440Z,99918.88
2022-12-07T15:17:08.113Z,99918.14
2022-12-07T15:19:39.731Z,99918.70
2022-12-07T15:22:11.993Z,99922.69
2022-12-07T15:24:43.957Z,99920.71
2022-12-07T15:27:15.946Z,99916.86
2022-12-07T15:29:47.637Z,99919.80
2022-12-07T15:32:19.452Z,99920.82
2022-12-07T15:34:51.217Z,99917.41
2022-12-07T15:37:22.886Z,99913.43
2022-12-07T15:39:54.897Z,99920.29
2022-12-07T15:42:26.574Z,99919.91
2022-12-07T15:45:07.519Z,99919.69
2022-12-07T15:48:11.689Z,99924.30
2022-12-07T15:50:32.586Z,99919.82
2022-12-07T15:53:04.299Z,99918.81
2022-12-07T15:55:35.985Z,99921.87
2022-12-07T15:58:07.956Z,99917.06
2022-12-07T16:00:39.850Z,99915.02
2022-12-07T16:03:11.884Z,99915.77
2022-12-07T16:05:43.769Z,99916.61
2022-12-07T16:08:15.607Z,99913.69
2022-12-07T16:10:47.340Z,99913.92
2022-12-07T16:13:20.364Z,99912.88
2022-12-07T16:15:52.142Z,99910.55
2022-12-07T16:18:23.835Z,99908.92
2022-12-07T16:20:55.502Z,99907.89
2022-12-07T16:23:27.237Z,99908.77
2022-12-07T16:26:07.539Z,99902.52
2022-12-07T16:28:39.307Z,99909.52
2022-12-07T16:31:13.073Z,99906.70
2022-12-07T16:33:46.436Z,99902.06
2022-12-07T16:36:34.319Z,99900.02
2022-12-07T16:39:10.547Z,99898.37
2022-12-07T16:41:42.396Z,99904.25
2022-12-07T16:44:15.676Z,99904.25
2022-12-07T16:46:47.325Z,99900.69
2022-12-07T16:49:20.643Z,99897.29
2022-12-07T16:52:18.351Z,99899.38
2022-12-07T16:54:46.619Z,99900.91
2022-12-07T16:57:23.028Z,99897.24
2022-12-07T16:59:55.838Z,99901.38
2022-12-07T17:02:27.466Z,99900.06
2022-12-07T17:04:59.295Z,99896.88
2022-12-07T17:07:33.206Z,99898.31
2022-12-07T17:10:13.118Z,99898.68
2022-12-07T17:12:44.792Z,99893.30
2022-12-07T17:15:19.839Z,99893.27
2022-12-07T17:17:56.206Z,99896.27
2022-12-07T17:20:30.464Z,99897.48
2022-12-07T17:23:02.319Z,99899.95
2022-12-07T17:25:34.050Z,99898.83
2022-12-07T17:28:05.971Z,99904.23
2022-12-07T17:30:37.807Z,99905.08
2022-12-07T17:33:09.602Z,99894.66
2022-12-07T17:35:41.296Z,99896.45
2022-12-07T17:38:12.944Z,99897.07
2022-12-07T17:40:44.624Z,99898.20
2022-12-07T17:43:16.205Z,99896.22
2022-12-07T17:45:47.949Z,99893.33
2022-12-07T17:48:19.707Z,99893.52
2022-12-07T17:51:08.619Z,99893.21
2022-12-07T17:53:40.278Z,99893.17
2022-12-07T17:56:27.965Z,99897.27
2022-12-07T17:59:01.357Z,99899.84
2022-12-07T18:01:34.929Z,99898.64
2022-12-07T18:04:08.180Z,99900.27
2022-12-07T18:06:40.505Z,99897.55
2022-12-07T18:09:12.649Z,99901.72
2022-12-07T18:11:44.423Z,99906.45
2022-12-07T18:14:16.824Z,99908.55
2022-12-07T18:16:49.878Z,99906.81
2022-12-07T18:19:21.819Z,99908.40
2022-12-07T18:21:53.553Z,99910.53
2022-12-07T18:24:25.204Z,99908.63
2022-12-07T18:26:56.937Z,99911.04
2022-12-07T18:29:28.524Z,99910.83
2022-12-07T18:32:00.426Z,99909.16
2022-12-07T18:34:32.201Z,99911.23
2022-12-07T18:37:03.998Z,99912.84
2022-12-07T18:39:35.959Z,99905.46
2022-12-07T18:42:08.470Z,99904.85
2022-12-07T18:44:40.086Z,99907.39
2022-12-07T18:47:12.203Z,99908.55
2022-12-07T18:49:44.168Z,99913.85
2022-12-07T18:52:15.997Z,99910.17
2022-12-07T18:54:48.032Z,99916.27
2022-12-07T18:57:19.856Z,99907.27
2022-12-07T18:59:51.578Z,99901.48
2022-12-07T19:02:23.280Z,99909.75
2022-12-07T19:04:55.031Z,99908.49
2022-12-07T19:07:26.915Z,99912.77
2022-12-07T19:09:58.640Z,99910.80
2022-12-07T19:12:30.490Z,99903.98
2022-12-07T19:15:02.599Z,99905.58
2022-12-07T19:17:34.897Z,99904.65
2022-12-07T19:20:17.910Z,99906.11
2022-12-07T19:22:59.404Z,99907.35
2022-12-07T19:25:31.492Z,99907.18
2022-12-07T19:28:03.243Z,99906.42
2022-12-07T19:30:35.218Z,99915.73
2022-12-07T19:33:07.311Z,99913.38
2022-12-07T19:35:38.913Z,99911.91
2022-12-07T19:38:10.700Z,99914.58
2022-12-07T19:40:42.347Z,99914.84
2022-12-07T19:43:14.120Z,99912.85
2022-12-07T19:45:45.840Z,99911.51
2022-12-07T19:48:17.623Z,99919.41
2022-12-07T19:50:49.281Z,99921.19
2022-12-07T19:53:20.919Z,99924.98
2022-12-07T19:55:52.525Z,99930.09
2022-12-07T19:58:24.350Z,99933.27
2022-12-07T20:00:57.347Z,99930.08
2022-12-07T20:03:29.524Z,99933.62
2022-12-07T20:06:01.340Z,99932.79
2022-12-07T20:08:33.042Z,99937.35
2022-12-07T20:11:25.892Z,99938.92
2022-12-07T20:13:57.625Z,99945.83
2022-12-07T20:16:29.638Z,99942.27
2022-12-07T20:19:02.240Z,99941.60
2022-12-07T20:21:34.018Z,99940.30
2022-12-07T20:24:07.566Z,99940.46
2022-12-07T20:26:40.384Z,99945.02
2022-12-07T20:29:17.937Z,99944.42
2022-12-07T20:31:51.375Z,99944.17
2022-12-07T20:34:23.249Z,99948.10
2022-12-07T20:36:55.538Z,99951.66
2022-12-07T20:39:27.306Z,99949.63
2022-12-07T20:42:16.937Z,99949.55
2022-12-07T20:44:48.938Z,99952.54
2022-12-07T20:47:20.697Z,99957.45
2022-12-07T20:49:53.823Z,99955.29
2022-12-07T20:52:25.611Z,99962.11
2022-12-07T20:54:57.437Z,99962.17
2022-12-07T20:57:29.163Z,99961.16
2022-12-07T21:00:00.870Z,99969.23
2022-12-07T21:02:32.708Z,99971.81
2022-12-07T21:05:04.777Z,99974.58
2022-12-07T21:07:37.596Z,99971.56
2022-12-07T21:10:18.764Z,99973.15
2022-12-07T21:12:57.371Z,99975.73
2022-12-07T21:15:29.088Z,99972.29
2022-12-07T21:18:07.123Z,99975.51
2022-12-07T21:20:39.143Z,99977.05
2022-12-07T21:23:10.845Z,99982.61
2022-12-07T21:25:42.485Z,99983.33
2022-12-07T21:28:14.129Z,99987.73
2022-12-07T21:31:12.162Z,99987.48
2022-12-07T21:33:39.469Z,99987.02
2022-12-07T21:36:14.483Z,99986.28
2022-12-07T21:38:46.495Z,99984.10
2022-12-07T21:41:20.060Z,99989.37
2022-12-07T21:43:52.089Z,99991.04
2022-12-07T21:46:31.292Z,99995.04
2022-12-07T21:49:08.353Z,99998.69
2022-12-07T21:51:41.317Z,100001.75
2022-12-07T21:54:13.424Z,100004.52
2022-12-07T21:56:45.700Z,100006.73
2022-12-07T21:59:21.134Z,100006.02
2022-12-07T22:01:53.863Z,100005.45
2022-12-07T22:04:27.263Z,100007.23
2022-12-07T22:06:59.445Z,100007.15
2022-12-07T22:09:31.163Z,100005.87
2022-12-07T22:12:02.827Z,100010.13
2022-12-07T22:14:52.091Z,100010.33
2022-12-07T22:17:23.823Z,100010.02
2022-12-07T22:19:55.437Z,100009.64
2022-12-07T22:22:27.143Z,100006.13
2022-12-07T22:24:58.835Z,100009.77
2022-12-07T22:27:30.512Z,100010.83
2022-12-07T22:30:02.175Z,100010.80
2022-12-07T22:32:49.668Z,100016.73
2022-12-07T22:35:21.690Z,100021.56
2022-12-07T22:37:53.337Z,100020.55
2022-12-07T22:40:25.062Z,100022.28
2022-12-07T22:42:56.743Z,100018.67
2022-12-07T22:45:28.598Z,100016.63
2022-12-07T22:48:00.355Z,100016.18
2022-12-07T22:50:32.303Z,100015.94
2022-12-07T22:53:05.191Z,100019.17
2022-12-07T22:55:41.314Z,100018.30
2022-12-07T22:58:13.065Z,100013.58
2022-12-07T23:00:44.750Z,100014.00
2022-12-07T23:03:16.985Z,100013.95
2022-12-07T23:05:50.668Z,100016.64
2022-12-07T23:08:22.450Z,100018.30
2022-12-07T23:10:54.123Z,100014.83
2022-12-07T23:13:36.813Z,100013.50
2022-12-07T23:16:16.265Z,100019.27
2022-12-07T23:18:48.042Z,100017.39
2022-12-07T23:21:19.980Z,100018.14
2022-12-07T23:23:51.679Z,100021.23
2022-12-07T23:26:23.370Z,100027.84
2022-12-07T23:28:55.465Z,100027.13
2022-12-07T23:31:27.267Z,100033.15
2022-12-07T23:33:59.189Z,100033.11
2022-12-07T23:36:31.345Z,100033.17
2022-12-07T23:39:03.108Z,100027.85
2022-12-07T23:41:35.109Z,100028.23
2022-12-07T23:44:06.909Z,100028.37
2022-12-07T23:46:38.570Z,100031.26
2022-12-07T23:49:12.852Z,100029.30
2022-12-07T23:51:44.484Z,100028.63
2022-12-07T23:54:16.227Z,100026.23
2022-12-07T23:56:48.221Z,100028.00
2022-12-07T23:59:21.904Z,100027.44
